sensor_id;sensor_type;location;lat;lon;timestamp;pressure;altitude;pressure_sealevel;temperature;humidity
50732;BME280;36700;50.488;2.544;2023-05-20T00:00:27;101986.81;;;15.59;55.09
50732;BME280;36700;50.488;2.544;2023-05-20T00:02:53;101977.84;;;15.59;54.84
50732;BME280;36700;50.488;2.544;2023-05-20T00:05:19;101989.50;;;15.59;54.90
50732;BME280;36700;50.488;2.544;2023-05-20T00:07:45;101982.44;;;15.58;55.09
50732;BME280;36700;50.488;2.544;2023-05-20T00:10:12;101982.63;;;15.57;55.26
50732;BME280;36700;50.488;2.544;2023-05-20T00:12:38;101983.47;;;15.57;55.30
50732;BME280;36700;50.488;2.544;2023-05-20T00:15:04;101979.91;;;15.57;55.34
50732;BME280;36700;50.488;2.544;2023-05-20T00:17:31;101979.09;;;15.56;55.09
50732;BME280;36700;50.488;2.544;2023-05-20T00:19:56;101975.53;;;15.56;55.19
50732;BME280;36700;50.488;2.544;2023-05-20T00:22:24;101975.72;;;15.54;55.27
50732;BME280;36700;50.488;2.544;2023-05-20T00:24:50;101977.63;;;15.54;55.32
50732;BME280;36700;50.488;2.544;2023-05-20T00:27:16;101973.03;;;15.54;55.14
50732;BME280;36700;50.488;2.544;2023-05-20T00:29:42;101972.19;;;15.54;55.32
50732;BME280;36700;50.488;2.544;2023-05-20T00:32:08;101960.50;;;15.53;55.26
50732;BME280;36700;50.488;2.544;2023-05-20T00:34:34;101964.25;;;15.52;55.14
50732;BME280;36700;50.488;2.544;2023-05-20T00:37:00;101964.25;;;15.52;55.24
50732;BME280;36700;50.488;2.544;2023-05-20T00:39:26;101963.22;;;15.53;55.34
50732;BME280;36700;50.488;2.544;2023-05-20T00:41:52;101975.09;;;15.52;55.15
50732;BME280;36700;50.488;2.544;2023-05-20T00:44:18;101966.97;;;15.52;55.11
50732;BME280;36700;50.488;2.544;2023-05-20T00:46:45;101966.97;;;15.52;55.00
50732;BME280;36700;50.488;2.544;2023-05-20T00:49:13;101960.69;;;15.52;55.40
50732;BME280;36700;50.488;2.544;2023-05-20T00:51:39;101961.75;;;15.51;55.23
50732;BME280;36700;50.488;2.544;2023-05-20T00:54:05;101953.63;;;15.51;55.14
50732;BME280;36700;50.488;2.544;2023-05-20T00:56:31;101955.50;;;15.50;55.14
50732;BME280;36700;50.488;2.544;2023-05-20T00:58:57;101941.31;;;15.48;55.34
50732;BME280;36700;50.488;2.544;2023-05-20T01:01:23;101942.16;;;15.48;55.21
50732;BME280;36700;50.488;2.544;2023-05-20T01:03:50;101937.78;;;15.47;55.34
50732;BME280;36700;50.488;2.544;2023-05-20T01:06:16;101940.47;;;15.47;55.08
50732;BME280;36700;50.488;2.544;2023-05-20T01:08:42;101936.09;;;15.46;55.00
50732;BME280;36700;50.488;2.544;2023-05-20T01:11:19;101938.81;;;15.46;55.18
50732;BME280;36700;50.488;2.544;2023-05-20T01:13:53;101934.22;;;15.47;55.24
50732;BME280;36700;50.488;2.544;2023-05-20T01:16:21;101933.41;;;15.46;55.32
50732;BME280;36700;50.488;2.544;2023-05-20T01:18:50;101932.56;;;15.46;54.97
50732;BME280;36700;50.488;2.544;2023-05-20T01:21:17;101924.63;;;15.44;55.11
50732;BME280;36700;50.488;2.544;2023-05-20T01:23:43;101929.00;;;15.45;55.36
50732;BME280;36700;50.488;2.544;2023-05-20T01:26:09;101927.31;;;15.44;55.30
50732;BME280;36700;50.488;2.544;2023-05-20T01:28:38;101924.63;;;15.44;55.10
50732;BME280;36700;50.488;2.544;2023-05-20T01:31:13;101919.19;;;15.44;55.30
50732;BME280;36700;50.488;2.544;2023-05-20T01:33:40;101915.66;;;15.44;55.12
50732;BME280;36700;50.488;2.544;2023-05-20T01:36:08;101922.94;;;15.43;55.37
50732;BME280;36700;50.488;2.544;2023-05-20T01:38:35;101913.16;;;15.42;55.36
50732;BME280;36700;50.488;2.544;2023-05-20T01:41:03;101912.31;;;15.42;55.08
50732;BME280;36700;50.488;2.544;2023-05-20T01:43:30;101912.31;;;15.42;55.39
50732;BME280;36700;50.488;2.544;2023-05-20T01:45:56;101911.25;;;15.43;55.25
50732;BME280;36700;50.488;2.544;2023-05-20T01:48:22;101923.16;;;15.42;55.33
50732;BME280;36700;50.488;2.544;2023-05-20T01:50:48;101911.47;;;15.41;55.23
50732;BME280;36700;50.488;2.544;2023-05-20T01:53:14;101913.34;;;15.41;55.50
50732;BME280;36700;50.488;2.544;2023-05-20T01:55:40;101906.25;;;15.40;55.16
50732;BME280;36700;50.488;2.544;2023-05-20T01:58:06;101910.00;;;15.39;55.24
50732;BME280;36700;50.488;2.544;2023-05-20T02:00:32;101900.84;;;15.40;55.38
50732;BME280;36700;50.488;2.544;2023-05-20T02:02:59;101905.41;;;15.39;55.73
50732;BME280;36700;50.488;2.544;2023-05-20T02:05:25;101900.00;;;15.39;55.66
50732;BME280;36700;50.488;2.544;2023-05-20T02:07:51;101905.41;;;15.39;55.30
50732;BME280;36700;50.488;2.544;2023-05-20T02:10:17;101895.63;;;15.38;55.33
50732;BME280;36700;50.488;2.544;2023-05-20T02:12:43;101903.75;;;15.38;55.34
50732;BME280;36700;50.488;2.544;2023-05-20T02:15:09;101894.78;;;15.38;55.18
50732;BME280;36700;50.488;2.544;2023-05-20T02:17:35;101902.94;;;15.38;55.31
50732;BME280;36700;50.488;2.544;2023-05-20T02:20:01;101902.06;;;15.37;55.38
50732;BME280;36700;50.488;2.544;2023-05-20T02:22:30;101897.50;;;15.38;55.39
50732;BME280;36700;50.488;2.544;2023-05-20T02:24:56;101888.72;;;15.35;55.59
50732;BME280;36700;50.488;2.544;2023-05-20T02:27:22;101888.72;;;15.35;55.77
50732;BME280;36700;50.488;2.544;2023-05-20T02:29:48;101896.03;;;15.35;55.53
50732;BME280;36700;50.488;2.544;2023-05-20T02:32:14;101889.56;;;15.36;55.29
50732;BME280;36700;50.488;2.544;2023-05-20T02:34:40;101899.56;;;15.35;55.49
50732;BME280;36700;50.488;2.544;2023-05-20T02:37:06;101894.34;;;15.34;55.64
50732;BME280;36700;50.488;2.544;2023-05-20T02:39:32;101897.06;;;15.34;55.67
50732;BME280;36700;50.488;2.544;2023-05-20T02:41:57;101893.53;;;15.33;55.61
50732;BME280;36700;50.488;2.544;2023-05-20T02:44:23;101891.63;;;15.34;55.58
50732;BME280;36700;50.488;2.544;2023-05-20T02:46:49;101890.81;;;15.33;55.73
50732;BME280;36700;50.488;2.544;2023-05-20T02:49:15;101882.69;;;15.33;55.63
50732;BME280;36700;50.488;2.544;2023-05-20T02:51:41;101878.31;;;15.32;55.45
50732;BME280;36700;50.488;2.544;2023-05-20T02:54:07;101878.31;;;15.32;55.52
50732;BME280;36700;50.488;2.544;2023-05-20T02:56:33;101878.31;;;15.32;55.49
50732;BME280;36700;50.488;2.544;2023-05-20T02:58:59;101873.94;;;15.31;55.62
50732;BME280;36700;50.488;2.544;2023-05-20T03:01:25;101873.94;;;15.31;55.36
50732;BME280;36700;50.488;2.544;2023-05-20T03:03:51;101874.75;;;15.32;55.23
50732;BME280;36700;50.488;2.544;2023-05-20T03:06:17;101869.53;;;15.30;55.48
50732;BME280;36700;50.488;2.544;2023-05-20T03:08:43;101873.94;;;15.31;55.66
50732;BME280;36700;50.488;2.544;2023-05-20T03:11:09;101877.66;;;15.30;55.46
50732;BME280;36700;50.488;2.544;2023-05-20T03:13:34;101874.94;;;15.30;55.74
50732;BME280;36700;50.488;2.544;2023-05-20T03:16:01;101880.38;;;15.30;55.91
50732;BME280;36700;50.488;2.544;2023-05-20T03:18:27;101873.28;;;15.29;55.58
50732;BME280;36700;50.488;2.544;2023-05-20T03:20:53;101871.41;;;15.30;56.08
50732;BME280;36700;50.488;2.544;2023-05-20T03:23:19;101862.44;;;15.29;55.64
50732;BME280;36700;50.488;2.544;2023-05-20T03:25:45;101865.34;;;15.28;55.65
50732;BME280;36700;50.488;2.544;2023-05-20T03:28:11;101858.91;;;15.29;55.66
50732;BME280;36700;50.488;2.544;2023-05-20T03:30:37;101861.63;;;15.29;55.61
50732;BME280;36700;50.488;2.544;2023-05-20T03:33:03;101853.28;;;15.24;55.92
50732;BME280;36700;50.488;2.544;2023-05-20T03:35:30;101859.13;;;15.27;55.71
50732;BME280;36700;50.488;2.544;2023-05-20T03:37:56;101857.22;;;15.28;55.63
50732;BME280;36700;50.488;2.544;2023-05-20T03:40:23;101856.41;;;15.27;55.46
50732;BME280;36700;50.488;2.544;2023-05-20T03:42:49;101863.69;;;15.27;55.70
50732;BME280;36700;50.488;2.544;2023-05-20T03:45:16;101869.09;;;15.27;55.86
50732;BME280;36700;50.488;2.544;2023-05-20T03:47:42;101851.19;;;15.26;55.57
50732;BME280;36700;50.488;2.544;2023-05-20T03:50:08;101869.09;;;15.27;55.62
50732;BME280;36700;50.488;2.544;2023-05-20T03:52:35;101867.44;;;15.26;55.89
50732;BME280;36700;50.488;2.544;2023-05-20T03:55:01;101857.44;;;15.26;55.88
50732;BME280;36700;50.488;2.544;2023-05-20T03:57:28;101863.06;;;15.25;55.51
50732;BME280;36700;50.488;2.544;2023-05-20T03:59:55;101853.88;;;15.26;55.72
50732;BME280;36700;50.488;2.544;2023-05-20T04:02:21;101856.78;;;15.24;55.74
50732;BME280;36700;50.488;2.544;2023-05-20T04:04:46;101855.78;;;15.25;55.85
50732;BME280;36700;50.488;2.544;2023-05-20T04:07:12;101851.38;;;15.24;55.64
50732;BME280;36700;50.488;2.544;2023-05-20T04:09:38;101845.13;;;15.24;55.98
50732;BME280;36700;50.488;2.544;2023-05-20T04:12:05;101849.50;;;15.25;55.70
50732;BME280;36700;50.488;2.544;2023-05-20T04:14:31;101842.44;;;15.24;55.40
50732;BME280;36700;50.488;2.544;2023-05-20T04:17:02;101844.72;;;15.20;55.48
50732;BME280;36700;50.488;2.544;2023-05-20T04:19:29;101847.00;;;15.23;55.68
50732;BME280;36700;50.488;2.544;2023-05-20T04:21:55;101847.00;;;15.23;55.54
50732;BME280;36700;50.488;2.544;2023-05-20T04:24:21;101849.72;;;15.23;55.58
50732;BME280;36700;50.488;2.544;2023-05-20T04:26:50;101851.59;;;15.23;55.74
50732;BME280;36700;50.488;2.544;2023-05-20T04:29:17;101857.84;;;15.23;55.79
50732;BME280;36700;50.488;2.544;2023-05-20T04:31:45;101861.59;;;15.22;55.43
50732;BME280;36700;50.488;2.544;2023-05-20T04:34:12;101860.56;;;15.23;55.57
50732;BME280;36700;50.488;2.544;2023-05-20T04:36:38;101852.41;;;15.23;55.61
50732;BME280;36700;50.488;2.544;2023-05-20T04:39:04;101856.16;;;15.22;55.61
50732;BME280;36700;50.488;2.544;2023-05-20T04:41:30;101859.72;;;15.23;55.68
50732;BME280;36700;50.488;2.544;2023-05-20T04:43:56;101862.44;;;15.23;55.67
50732;BME280;36700;50.488;2.544;2023-05-20T04:46:26;101858.88;;;15.22;55.46
50732;BME280;36700;50.488;2.544;2023-05-20T04:48:52;101857.03;;;15.23;55.78
50732;BME280;36700;50.488;2.544;2023-05-20T04:51:19;101848.88;;;15.23;55.56
50732;BME280;36700;50.488;2.544;2023-05-20T04:53:45;101850.75;;;15.22;55.50
50732;BME280;36700;50.488;2.544;2023-05-20T04:56:11;101851.59;;;15.23;55.75
50732;BME280;36700;50.488;2.544;2023-05-20T04:58:38;101849.91;;;15.21;55.35
50732;BME280;36700;50.488;2.544;2023-05-20T05:01:04;101848.88;;;15.23;55.49
50732;BME280;36700;50.488;2.544;2023-05-20T05:03:30;101848.88;;;15.23;55.61
50732;BME280;36700;50.488;2.544;2023-05-20T05:05:57;101850.75;;;15.22;55.50
50732;BME280;36700;50.488;2.544;2023-05-20T05:08:23;101846.19;;;15.23;55.53
50732;BME280;36700;50.488;2.544;2023-05-20T05:10:49;101838.06;;;15.23;55.60
50732;BME280;36700;50.488;2.544;2023-05-20T05:13:15;101839.91;;;15.22;55.43
50732;BME280;36700;50.488;2.544;2023-05-20T05:15:41;101831.59;;;15.24;55.75
50732;BME280;36700;50.488;2.544;2023-05-20T05:18:08;101836.16;;;15.23;55.64
50732;BME280;36700;50.488;2.544;2023-05-20T05:20:34;101838.88;;;15.23;55.72
50732;BME280;36700;50.488;2.544;2023-05-20T05:23:00;101834.31;;;15.24;55.65
50732;BME280;36700;50.488;2.544;2023-05-20T05:25:26;101832.41;;;15.24;55.59
50732;BME280;36700;50.488;2.544;2023-05-20T05:27:52;101840.53;;;15.24;55.96
50732;BME280;36700;50.488;2.544;2023-05-20T05:30:20;101837.22;;;15.22;55.65
50732;BME280;36700;50.488;2.544;2023-05-20T05:32:47;101836.34;;;15.21;55.73
50732;BME280;36700;50.488;2.544;2023-05-20T05:35:13;101843.06;;;15.26;55.66
50732;BME280;36700;50.488;2.544;2023-05-20T05:37:38;101840.75;;;15.23;55.72
50732;BME280;36700;50.488;2.544;2023-05-20T05:40:06;101842.22;;;15.25;55.69
50732;BME280;36700;50.488;2.544;2023-05-20T05:42:32;101843.06;;;15.26;55.57
50732;BME280;36700;50.488;2.544;2023-05-20T05:44:58;101834.91;;;15.26;55.57
50732;BME280;36700;50.488;2.544;2023-05-20T05:47:24;101835.75;;;15.26;55.68
50732;BME280;36700;50.488;2.544;2023-05-20T05:49:54;101835.75;;;15.26;55.63
50732;BME280;36700;50.488;2.544;2023-05-20T05:52:20;101845.56;;;15.27;55.74
50732;BME280;36700;50.488;2.544;2023-05-20T05:54:46;101832.00;;;15.27;55.58
50732;BME280;36700;50.488;2.544;2023-05-20T05:57:12;101836.59;;;15.27;55.90
50732;BME280;36700;50.488;2.544;2023-05-20T05:59:38;101840.13;;;15.27;55.70
50732;BME280;36700;50.488;2.544;2023-05-20T06:02:05;101827.63;;;15.26;55.56
50732;BME280;36700;50.488;2.544;2023-05-20T06:04:30;101830.97;;;15.28;55.76
50732;BME280;36700;50.488;2.544;2023-05-20T06:06:57;101823.25;;;15.25;55.73
50732;BME280;36700;50.488;2.544;2023-05-20T06:09:23;101838.06;;;15.29;55.84
50732;BME280;36700;50.488;2.544;2023-05-20T06:11:49;101831.59;;;15.30;55.99
50732;BME280;36700;50.488;2.544;2023-05-20T06:14:15;101828.25;;;15.28;55.42
50732;BME280;36700;50.488;2.544;2023-05-20T06:16:41;101840.38;;;15.32;55.66
50732;BME280;36700;50.488;2.544;2023-05-20T06:19:07;101845.34;;;15.35;55.68
50732;BME280;36700;50.488;2.544;2023-05-20T06:21:33;101842.66;;;15.42;55.48
50732;BME280;36700;50.488;2.544;2023-05-20T06:24:00;101838.31;;;15.55;55.29
50732;BME280;36700;50.488;2.544;2023-05-20T06:26:26;101824.53;;;15.63;54.52
50732;BME280;36700;50.488;2.544;2023-05-20T06:28:52;101821.81;;;15.77;54.54
50732;BME280;36700;50.488;2.544;2023-05-20T06:31:18;101825.56;;;15.89;54.30
50732;BME280;36700;50.488;2.544;2023-05-20T06:33:44;101820.81;;;15.98;54.18
50732;BME280;36700;50.488;2.544;2023-05-20T06:36:10;101815.19;;;16.06;53.91
50732;BME280;36700;50.488;2.544;2023-05-20T06:38:36;101821.63;;;16.12;53.40
50732;BME280;36700;50.488;2.544;2023-05-20T06:41:02;101818.69;;;16.20;53.56
50732;BME280;36700;50.488;2.544;2023-05-20T06:43:28;101815.75;;;16.22;53.50
50732;BME280;36700;50.488;2.544;2023-05-20T06:45:54;101817.00;;;16.33;53.31
50732;BME280;36700;50.488;2.544;2023-05-20T06:48:20;101814.91;;;16.41;53.29
50732;BME280;36700;50.488;2.544;2023-05-20T06:50:46;101808.81;;;16.46;53.21
50732;BME280;36700;50.488;2.544;2023-05-20T06:53:12;101805.66;;;16.56;52.84
50732;BME280;36700;50.488;2.544;2023-05-20T06:55:38;101800.22;;;16.56;52.97
50732;BME280;36700;50.488;2.544;2023-05-20T06:58:04;101800.81;;;16.65;52.66
50732;BME280;36700;50.488;2.544;2023-05-20T07:00:30;101797.63;;;16.75;52.70
50732;BME280;36700;50.488;2.544;2023-05-20T07:02:56;101806.50;;;16.95;52.06
50732;BME280;36700;50.488;2.544;2023-05-20T07:05:22;101795.91;;;17.26;50.99
50732;BME280;36700;50.488;2.544;2023-05-20T07:07:49;101801.09;;;17.60;50.40
50732;BME280;36700;50.488;2.544;2023-05-20T07:10:15;101798.50;;;18.53;47.89
50732;BME280;36700;50.488;2.544;2023-05-20T07:12:41;101793.91;;;20.29;43.71
50732;BME280;36700;50.488;2.544;2023-05-20T07:15:07;101788.41;;;21.11;41.82
50732;BME280;36700;50.488;2.544;2023-05-20T07:17:34;101784.44;;;21.53;40.53
50732;BME280;36700;50.488;2.544;2023-05-20T07:20:00;101798.28;;;21.64;40.38
50732;BME280;36700;50.488;2.544;2023-05-20T07:22:26;101786.00;;;22.01;39.68
50732;BME280;36700;50.488;2.544;2023-05-20T07:24:51;101785.00;;;22.07;39.87
50732;BME280;36700;50.488;2.544;2023-05-20T07:27:17;101793.22;;;22.29;39.27
50732;BME280;36700;50.488;2.544;2023-05-20T07:29:43;101791.75;;;22.44;38.74
50732;BME280;36700;50.488;2.544;2023-05-20T07:32:09;101786.97;;;22.12;39.61
50732;BME280;36700;50.488;2.544;2023-05-20T07:34:36;101779.94;;;21.99;39.64
50732;BME280;36700;50.488;2.544;2023-05-20T07:37:02;101784.91;;;20.05;43.51
50732;BME280;36700;50.488;2.544;2023-05-20T07:39:28;101789.53;;;18.83;46.36
50732;BME280;36700;50.488;2.544;2023-05-20T07:41:54;101785.06;;;18.21;48.21
50732;BME280;36700;50.488;2.544;2023-05-20T07:44:20;101783.59;;;17.74;49.56
50732;BME280;36700;50.488;2.544;2023-05-20T07:46:47;101780.34;;;17.40;50.50
50732;BME280;36700;50.488;2.544;2023-05-20T07:49:13;101780.03;;;17.23;51.18
50732;BME280;36700;50.488;2.544;2023-05-20T07:51:40;101778.25;;;17.10;51.26
50732;BME280;36700;50.488;2.544;2023-05-20T07:54:06;101770.75;;;16.99;52.42
50732;BME280;36700;50.488;2.544;2023-05-20T07:56:32;101773.75;;;16.90;52.05
50732;BME280;36700;50.488;2.544;2023-05-20T07:58:58;101763.75;;;16.84;52.58
50732;BME280;36700;50.488;2.544;2023-05-20T08:01:25;101762.72;;;16.78;52.51
50732;BME280;36700;50.488;2.544;2023-05-20T08:03:52;101756.88;;;16.75;52.85
50732;BME280;36700;50.488;2.544;2023-05-20T08:06:18;101757.31;;;16.72;52.90
50732;BME280;36700;50.488;2.544;2023-05-20T08:08:48;101754.44;;;16.66;52.85
50732;BME280;36700;50.488;2.544;2023-05-20T08:11:15;101748.38;;;16.64;53.03
50732;BME280;36700;50.488;2.544;2023-05-20T08:13:41;101754.84;;;16.63;53.04
50732;BME280;36700;50.488;2.544;2023-05-20T08:16:07;101758.63;;;16.62;53.21
50732;BME280;36700;50.488;2.544;2023-05-20T08:18:36;101749.47;;;16.57;53.46
50732;BME280;36700;50.488;2.544;2023-05-20T08:21:03;101755.50;;;16.59;53.22
50732;BME280;36700;50.488;2.544;2023-05-20T08:23:29;101754.06;;;16.56;53.27
50732;BME280;36700;50.488;2.544;2023-05-20T08:25:56;101759.09;;;16.52;53.75
50732;BME280;36700;50.488;2.544;2023-05-20T08:28:22;101760.75;;;16.53;53.71
50732;BME280;36700;50.488;2.544;2023-05-20T08:30:48;101771.81;;;16.52;53.59
50732;BME280;36700;50.488;2.544;2023-05-20T08:33:14;101763.91;;;16.50;54.16
50732;BME280;36700;50.488;2.544;2023-05-20T08:35:40;101767.44;;;16.51;54.07
50732;BME280;36700;50.488;2.544;2023-05-20T08:38:06;101760.34;;;16.50;54.02
50732;BME280;36700;50.488;2.544;2023-05-20T08:40:35;101764.13;;;16.49;54.18
50732;BME280;36700;50.488;2.544;2023-05-20T08:43:01;101755.13;;;16.48;54.17
50732;BME280;36700;50.488;2.544;2023-05-20T08:45:33;101753.47;;;16.47;54.10
50732;BME280;36700;50.488;2.544;2023-05-20T08:47:59;101748.25;;;16.46;54.26
50732;BME280;36700;50.488;2.544;2023-05-20T08:50:26;101752.63;;;16.47;54.30
50732;BME280;36700;50.488;2.544;2023-05-20T08:52:52;101747.44;;;16.45;54.56
50732;BME280;36700;50.488;2.544;2023-05-20T08:55:29;101754.72;;;16.45;54.50
50732;BME280;36700;50.488;2.544;2023-05-20T08:57:57;101741.34;;;16.43;54.64
50732;BME280;36700;50.488;2.544;2023-05-20T09:00:23;101741.34;;;16.43;54.86
50732;BME280;36700;50.488;2.544;2023-05-20T09:02:54;101737.81;;;16.42;54.59
50732;BME280;36700;50.488;2.544;2023-05-20T09:05:21;101733.44;;;16.41;54.99
50732;BME280;36700;50.488;2.544;2023-05-20T09:07:47;101735.13;;;16.42;54.67
50732;BME280;36700;50.488;2.544;2023-05-20T09:10:13;101728.03;;;16.41;54.68
50732;BME280;36700;50.488;2.544;2023-05-20T09:12:39;101732.41;;;16.42;54.84
50732;BME280;36700;50.488;2.544;2023-05-20T09:15:06;101724.47;;;16.41;55.06
50732;BME280;36700;50.488;2.544;2023-05-20T09:17:35;101715.25;;;16.42;55.04
50732;BME280;36700;50.488;2.544;2023-05-20T09:20:06;101728.03;;;16.41;55.05
50732;BME280;36700;50.488;2.544;2023-05-20T09:22:33;101710.03;;;16.40;54.91
50732;BME280;36700;50.488;2.544;2023-05-20T09:24:59;101717.38;;;16.40;55.23
50732;BME280;36700;50.488;2.544;2023-05-20T09:27:25;101712.75;;;16.40;55.13
50732;BME280;36700;50.488;2.544;2023-05-20T09:29:51;101716.53;;;16.39;55.06
50732;BME280;36700;50.488;2.544;2023-05-20T09:32:20;101721.97;;;16.39;55.17
50732;BME280;36700;50.488;2.544;2023-05-20T09:34:49;101713.00;;;16.39;55.23
50732;BME280;36700;50.488;2.544;2023-05-20T09:37:17;101708.38;;;16.39;55.10
50732;BME280;36700;50.488;2.544;2023-05-20T09:40:02;101710.03;;;16.40;55.12
50732;BME280;36700;50.488;2.544;2023-05-20T09:42:41;101705.06;;;16.37;55.18
50732;BME280;36700;50.488;2.544;2023-05-20T09:45:09;101701.91;;;16.40;55.07
50732;BME280;36700;50.488;2.544;2023-05-20T09:47:37;101704.00;;;16.38;55.43
50732;BME280;36700;50.488;2.544;2023-05-20T09:50:06;101703.59;;;16.41;55.08
50732;BME280;36700;50.488;2.544;2023-05-20T09:52:34;101689.59;;;16.38;55.07
50732;BME280;36700;50.488;2.544;2023-05-20T09:55:02;101685.84;;;16.39;55.10
50732;BME280;36700;50.488;2.544;2023-05-20T09:57:35;101686.66;;;16.39;55.20
50732;BME280;36700;50.488;2.544;2023-05-20T10:00:02;101682.09;;;16.40;55.11
50732;BME280;36700;50.488;2.544;2023-05-20T10:02:30;101684.59;;;16.41;55.41
50732;BME280;36700;50.488;2.544;2023-05-20T10:04:57;101688.97;;;16.42;55.25
50732;BME280;36700;50.488;2.544;2023-05-20T10:15:13;101680.81;;;16.42;55.08
50732;BME280;36700;50.488;2.544;2023-05-20T10:20:44;101667.25;;;16.42;54.99
50732;BME280;36700;50.488;2.544;2023-05-20T10:23:19;101667.84;;;16.45;55.20
50732;BME280;36700;50.488;2.544;2023-05-20T10:25:53;101661.56;;;16.44;55.02
50732;BME280;36700;50.488;2.544;2023-05-20T10:28:33;101654.47;;;16.43;55.23
50732;BME280;36700;50.488;2.544;2023-05-20T10:31:01;101668.06;;;16.43;55.12
50732;BME280;36700;50.488;2.544;2023-05-20T10:33:28;101650.13;;;16.42;55.25
50732;BME280;36700;50.488;2.544;2023-05-20T10:35:59;101644.25;;;16.45;54.96
50732;BME280;36700;50.488;2.544;2023-05-20T10:38:25;101657.00;;;16.45;55.14
50732;BME280;36700;50.488;2.544;2023-05-20T10:40:51;101655.13;;;16.45;55.08
50732;BME280;36700;50.488;2.544;2023-05-20T10:43:27;101645.28;;;16.44;54.66
50732;BME280;36700;50.488;2.544;2023-05-20T10:45:54;101648.63;;;16.46;55.07
50732;BME280;36700;50.488;2.544;2023-05-20T10:48:27;101649.44;;;16.47;54.79
50732;BME280;36700;50.488;2.544;2023-05-20T10:50:55;101642.38;;;16.46;54.71
50732;BME280;36700;50.488;2.544;2023-05-20T10:53:23;101640.50;;;16.46;54.63
50732;BME280;36700;50.488;2.544;2023-05-20T10:55:50;101632.34;;;16.46;54.71
50732;BME280;36700;50.488;2.544;2023-05-20T10:58:17;101636.94;;;16.46;54.77
50732;BME280;36700;50.488;2.544;2023-05-20T11:00:44;101645.06;;;16.46;54.94
50732;BME280;36700;50.488;2.544;2023-05-20T11:03:10;101639.44;;;16.47;54.54
50732;BME280;36700;50.488;2.544;2023-05-20T11:05:39;101632.34;;;16.46;54.94
50732;BME280;36700;50.488;2.544;2023-05-20T11:08:07;101623.16;;;16.47;54.61
50732;BME280;36700;50.488;2.544;2023-05-20T11:10:34;101624.19;;;16.46;54.76
50732;BME280;36700;50.488;2.544;2023-05-20T11:13:01;101616.66;;;16.48;54.82
50732;BME280;36700;50.488;2.544;2023-05-20T11:15:27;101631.09;;;16.49;54.53
50732;BME280;36700;50.488;2.544;2023-05-20T11:17:59;101627.53;;;16.48;54.35
50732;BME280;36700;50.488;2.544;2023-05-20T11:20:25;101631.91;;;16.49;54.73
50732;BME280;36700;50.488;2.544;2023-05-20T11:22:51;101616.66;;;16.48;54.56
50732;BME280;36700;50.488;2.544;2023-05-20T11:25:18;101616.66;;;16.48;54.60
50732;BME280;36700;50.488;2.544;2023-05-20T11:27:44;101612.28;;;16.47;54.69
50732;BME280;36700;50.488;2.544;2023-05-20T11:30:12;101613.94;;;16.48;54.41
50732;BME280;36700;50.488;2.544;2023-05-20T11:32:42;101616.44;;;16.50;54.69
50732;BME280;36700;50.488;2.544;2023-05-20T11:35:21;101615.84;;;16.48;54.80
50732;BME280;36700;50.488;2.544;2023-05-20T11:38:03;101618.31;;;16.49;54.67
50732;BME280;36700;50.488;2.544;2023-05-20T11:40:31;101602.03;;;16.49;54.71
50732;BME280;36700;50.488;2.544;2023-05-20T11:43:00;101601.22;;;16.49;54.56
50732;BME280;36700;50.488;2.544;2023-05-20T11:45:38;101601.00;;;16.50;54.64
50732;BME280;36700;50.488;2.544;2023-05-20T11:48:04;101587.66;;;16.49;54.56
50732;BME280;36700;50.488;2.544;2023-05-20T11:50:38;101582.22;;;16.49;54.56
50732;BME280;36700;50.488;2.544;2023-05-20T11:53:10;101586.59;;;16.50;54.46
50732;BME280;36700;50.488;2.544;2023-05-20T11:55:50;101582.81;;;16.51;54.75
50732;BME280;36700;50.488;2.544;2023-05-20T11:58:21;101584.72;;;16.50;54.58
50732;BME280;36700;50.488;2.544;2023-05-20T12:00:47;101585.53;;;16.51;54.64
50732;BME280;36700;50.488;2.544;2023-05-20T12:03:13;101583.66;;;16.51;54.60
50732;BME280;36700;50.488;2.544;2023-05-20T12:05:40;101580.09;;;16.51;54.58
50732;BME280;36700;50.488;2.544;2023-05-20T12:08:06;101566.72;;;16.49;54.49
50732;BME280;36700;50.488;2.544;2023-05-20T12:10:33;101574.47;;;16.52;54.25
50732;BME280;36700;50.488;2.544;2023-05-20T12:12:59;101568.19;;;16.52;54.54
50732;BME280;36700;50.488;2.544;2023-05-20T12:15:25;101574.47;;;16.52;54.38
50732;BME280;36700;50.488;2.544;2023-05-20T12:17:52;101571.13;;;16.50;54.51
50732;BME280;36700;50.488;2.544;2023-05-20T12:20:23;101580.69;;;16.53;54.59
50732;BME280;36700;50.488;2.544;2023-05-20T12:22:49;101572.81;;;16.51;54.70
50732;BME280;36700;50.488;2.544;2023-05-20T12:25:17;101548.84;;;16.41;54.73
50732;BME280;36700;50.488;2.544;2023-05-20T12:27:45;101557.78;;;16.49;54.34
50732;BME280;36700;50.488;2.544;2023-05-20T12:30:16;101556.25;;;16.53;54.47
50732;BME280;36700;50.488;2.544;2023-05-20T12:32:43;101562.53;;;16.53;54.36
50732;BME280;36700;50.488;2.544;2023-05-20T12:35:10;101563.38;;;16.54;54.46
50732;BME280;36700;50.488;2.544;2023-05-20T12:37:38;101556.25;;;16.53;54.82
50732;BME280;36700;50.488;2.544;2023-05-20T12:40:04;101570.25;;;16.57;54.60
50732;BME280;36700;50.488;2.544;2023-05-20T12:42:40;101563.38;;;16.54;54.38
50732;BME280;36700;50.488;2.544;2023-05-20T12:45:07;101570.25;;;16.57;54.60
50732;BME280;36700;50.488;2.544;2023-05-20T12:47:37;101570.25;;;16.57;54.68
50732;BME280;36700;50.488;2.544;2023-05-20T12:50:03;101568.56;;;16.55;54.74
50732;BME280;36700;50.488;2.544;2023-05-20T12:52:29;101570.00;;;16.58;54.42
50732;BME280;36700;50.488;2.544;2023-05-20T12:54:55;101564.59;;;16.58;54.36
50732;BME280;36700;50.488;2.544;2023-05-20T12:57:22;101566.47;;;16.58;54.35
50732;BME280;36700;50.488;2.544;2023-05-20T12:59:48;101554.78;;;16.57;54.28